No particular awareness of the weather is required.    There are no Weather-warnings


Meteo18 Weather Cam more information Meteo18 Weather Cam


Thunder radar more information blitzortung!


Rain radar more information rain snow radar


Visit our other weather sites:

Template documentation
and downloads

And another site



Weather Underground History page Text

Daily Summary for February 2, 2017 Units:  English    Metric   Both
« Previous Day
Next Day »
Daily Weekly Monthly Yearly Custom
  High: Low: Average:
Temperature: 59.7 °F 43.2 °F 49.5 °F
Dew Point: 50 °F 40.6 °F 45.3 °F
Humidity: 94 % 68 % 86 %
Wind Speed: 18 mph 0 mph 2.7 mph
Wind Gust: 21 mph - -
Wind:- - South
Pressure: 29.9 in 29.7 in -
Precipitation: 0.1 in    
Historical Graphs
 
 
Tabular Data for February 2, 2017
Time Temperature Dew Point Pressure Wind Wind Speed Wind Gust Humidity Rainfall Rate (Hourly)
00:02 45.9 °F 43.7 °F 29.9 in Calm   1 mph 92 % 0 in
00:07 45.9 °F 43.7 °F 29.9 in Calm   1 mph 92 % 0 in
00:12 45.9 °F 43.7 °F 29.9 in Calm   1 mph 92 % 0 in
00:17 45.9 °F 43.9 °F 29.9 in Calm   1 mph 93 % 0 in
00:22 45.7 °F 43.5 °F 29.9 in SW 1 mph   92 % 0 in
00:27 45.5 °F 43.9 °F 29.9 in Calm   1 mph 94 % 0 in
00:32 45.9 °F 44.2 °F 29.9 in Calm   1 mph 94 % 0 in
00:37 45.3 °F 43.2 °F 29.9 in Calm   1 mph 92 % 0 in
00:42 45.5 °F 43.9 °F 29.9 in Calm   1 mph 94 % 0 in
00:47 45.7 °F 44.1 °F 29.9 in Calm   1 mph 94 % 0 in
00:52 45.7 °F 44.1 °F 29.9 in Calm   3 mph 94 % 0 in
00:57 45.9 °F 44.2 °F 29.9 in SW 1 mph 3 mph 94 % 0 in
01:02 45.9 °F 44.2 °F 29.9 in SW 1 mph 3 mph 94 % 0 in
01:07 46 °F 44.4 °F 29.9 in Calm   2 mph 94 % 0 in
01:12 46.2 °F 44.6 °F 29.9 in Calm   2 mph 94 % 0 in
01:17 46.2 °F 44.6 °F 29.9 in Calm   2 mph 94 % 0 in
01:22 46.2 °F 44.6 °F 29.9 in Calm   1 mph 94 % 0 in
01:27 46.2 °F 44.2 °F 29.9 in Calm   1 mph 93 % 0 in
01:32 46.2 °F 44.2 °F 29.9 in Calm   1 mph 93 % 0 in
01:37 46 °F 44.1 °F 29.9 in Calm   1 mph 93 % 0 in
01:42 45.7 °F 43.7 °F 29.9 in Calm   1 mph 93 % 0 in
01:47 45.7 °F 44.1 °F 29.9 in Calm   1 mph 94 % 0 in
01:52 45.7 °F 44.1 °F 29.9 in Calm   1 mph 94 % 0 in
01:57 45.9 °F 44.2 °F 29.9 in Calm   1 mph 94 % 0 in
02:02 45.9 °F 43.9 °F 29.9 in SW 1 mph 1 mph 93 % 0 in
02:07 45.1 °F 43 °F 29.9 in Calm   1 mph 92 % 0 in
02:12 45.1 °F 43.5 °F 29.9 in Calm   1 mph 94 % 0 in
02:17 45.3 °F 43.7 °F 29.9 in Calm   1 mph 94 % 0 in
02:22 45.5 °F 43.9 °F 29.9 in Calm   1 mph 94 % 0 in
02:32 46 °F 44.1 °F 29.9 in Calm     93 % 0 in
02:37 46 °F 43.9 °F 29.9 in Calm   2 mph 92 % 0 in
02:42 46 °F 43.5 °F 29.9 in Calm   2 mph 91 % 0 in
02:47 45.7 °F 43.5 °F 29.9 in Calm   1 mph 92 % 0 in
02:52 45.7 °F 43.5 °F 29.9 in Calm     92 % 0 in
02:57 45.7 °F 43.5 °F 29.9 in Calm     92 % 0 in
03:02 45.1 °F 42.6 °F 29.9 in Calm     91 % 0 in
03:07 45.3 °F 43.3 °F 29.8 in Calm     93 % 0 in
03:12 45.3 °F 43.2 °F 29.8 in Calm     92 % 0 in
03:17 45.1 °F 43 °F 29.8 in Calm     92 % 0 in
03:22 45 °F 42.4 °F 29.8 in Calm     91 % 0 in
03:27 44.8 °F 42.3 °F 29.8 in Calm     91 % 0 in
03:32 45 °F 42.8 °F 29.8 in Calm   1 mph 92 % 0 in
03:37 45.1 °F 42.6 °F 29.8 in Calm   1 mph 91 % 0 in
03:42 45 °F 42.4 °F 29.8 in Calm   1 mph 91 % 0 in
03:47 45 °F 42.4 °F 29.8 in Calm   3 mph 91 % 0 in
03:52 45 °F 42.4 °F 29.8 in Calm   3 mph 91 % 0 in
03:57 44.8 °F 42.3 °F 29.8 in Calm   3 mph 91 % 0 in
04:02 44.8 °F 42.3 °F 29.8 in Calm     91 % 0 in
04:07 44.4 °F 41.9 °F 29.8 in Calm     91 % 0 in
04:12 44.6 °F 42.1 °F 29.8 in Calm     91 % 0 in
04:17 44.6 °F 42.1 °F 29.8 in Calm     91 % 0 in
04:22 44.6 °F 42.1 °F 29.8 in Calm     91 % 0 in
04:27 44.8 °F 42.3 °F 29.8 in Calm     91 % 0 in
04:32 44.8 °F 42.1 °F 29.8 in Calm     90 % 0 in
04:42 44.4 °F 41.7 °F 29.8 in Calm     90 % 0 in
04:47 44.4 °F 41.7 °F 29.8 in Calm     90 % 0 in
04:52 44.4 °F 41.7 °F 29.8 in Calm     90 % 0 in
04:57 44.2 °F 41.5 °F 29.8 in Calm     90 % 0 in
05:02 44.2 °F 41.7 °F 29.8 in Calm     91 % 0 in
05:07 44.2 °F 41.7 °F 29.8 in Calm     91 % 0 in
05:12 44.4 °F 41.9 °F 29.8 in Calm     91 % 0 in
05:17 44.8 °F 42.1 °F 29.8 in Calm     90 % 0 in
05:22 44.8 °F 41.7 °F 29.8 in Calm     89 % 0 in
05:37 44.4 °F 41.7 °F 29.8 in Calm     90 % 0 in
05:42 44.4 °F 41.4 °F 29.8 in Calm     89 % 0 in
05:47 43.9 °F 40.8 °F 29.8 in Calm     89 % 0 in
05:52 43.5 °F 41 °F 29.8 in Calm     91 % 0 in
05:57 43.5 °F 41 °F 29.8 in Calm     91 % 0 in
06:02 43.5 °F 41.4 °F 29.8 in NNE 1 mph 3 mph 92 % 0 in
06:07 44.1 °F 41.9 °F 29.8 in NE 1 mph 3 mph 92 % 0 in
06:12 44.4 °F 41.7 °F 29.8 in NE 1 mph 3 mph 90 % 0 in
06:17 44.4 °F 41.7 °F 29.8 in Calm   2 mph 90 % 0 in
06:22 44.1 °F 41.4 °F 29.8 in Calm   2 mph 90 % 0 in
06:27 44.1 °F 41.4 °F 29.8 in Calm   1 mph 90 % 0 in
06:32 44.1 °F 41.4 °F 29.8 in Calm   1 mph 90 % 0 in
06:37 43.9 °F 41.2 °F 29.8 in Calm     90 % 0 in
06:42 43.9 °F 41.2 °F 29.8 in Calm     90 % 0 in
06:47 43.5 °F 40.8 °F 29.8 in Calm     90 % 0 in
06:57 43.7 °F 41.5 °F 29.8 in Calm     92 % 0 in
07:02 43.9 °F 41.4 °F 29.8 in Calm     91 % 0 in
07:07 43.9 °F 41.4 °F 29.8 in Calm     91 % 0 in
07:12 43.9 °F 41.2 °F 29.8 in Calm     90 % 0 in
07:17 43.5 °F 41 °F 29.8 in Calm     91 % 0 in
07:22 43.5 °F 41 °F 29.8 in Calm     91 % 0 in
07:27 43.7 °F 41.2 °F 29.8 in Calm     91 % 0 in
07:32 43.9 °F 41.4 °F 29.8 in Calm     91 % 0 in
07:37 43.5 °F 40.8 °F 29.8 in Calm     90 % 0 in
07:42 43.3 °F 40.8 °F 29.8 in Calm     91 % 0 in
07:47 43.5 °F 41 °F 29.8 in Calm     91 % 0 in
07:52 43.2 °F 40.6 °F 29.8 in Calm     91 % 0 in
07:57 43.5 °F 41.4 °F 29.8 in Calm     92 % 0 in
08:02 43.7 °F 41.2 °F 29.8 in Calm     91 % 0 in
08:07 43.3 °F 40.6 °F 29.8 in Calm     90 % 0 in
08:12 43.2 °F 40.6 °F 29.8 in Calm     91 % 0 in
08:17 43.3 °F 41.2 °F 29.8 in Calm     92 % 0 in
08:22 43.5 °F 41.4 °F 29.8 in Calm     92 % 0 in
08:27 43.5 °F 41 °F 29.8 in Calm     91 % 0 in
08:32 43.5 °F 40.8 °F 29.8 in Calm     90 % 0 in
08:37 43.7 °F 41.5 °F 29.8 in Calm     92 % 0 in
08:42 43.9 °F 41.4 °F 29.8 in Calm     91 % 0 in
08:47 43.9 °F 41.4 °F 29.8 in Calm     91 % 0 in
08:52 43.9 °F 41.4 °F 29.8 in Calm     91 % 0 in
08:57 43.9 °F 41.4 °F 29.8 in North 1 mph 2 mph 91 % 0 in
09:02 43.9 °F 41.4 °F 29.8 in North 2 mph 2 mph 91 % 0 in
09:07 43.5 °F 41 °F 29.8 in NE 1 mph 2 mph 91 % 0 in
09:12 43.5 °F 41 °F 29.8 in Calm   2 mph 91 % 0 in
09:17 43.7 °F 41.2 °F 29.8 in Calm   2 mph 91 % 0 in
09:22 43.7 °F 41.2 °F 29.8 in Calm   2 mph 91 % 0 in
09:32 44.8 °F 41.7 °F 29.8 in Calm   1 mph 89 % 0 in
09:37 44.2 °F 41 °F 29.8 in Calm   1 mph 88 % 0 in
09:42 44.1 °F 41.5 °F 29.8 in SE 1 mph 4 mph 91 % 0 in
09:47 45 °F 42.3 °F 29.8 in West 3 mph 5 mph 90 % 0 in
09:52 44.6 °F 41.9 °F 29.8 in WSW 2 mph 8 mph 90 % 0 in
09:57 45 °F 42.3 °F 29.8 in Calm   8 mph 90 % 0 in
10:02 45.7 °F 42.6 °F 29.8 in Calm   5 mph 89 % 0 in
10:07 46 °F 42.6 °F 29.8 in SSE 1 mph 2 mph 88 % 0 in
10:12 46.6 °F 43 °F 29.8 in Calm   5 mph 87 % 0 in
10:17 46.8 °F 43.2 °F 29.8 in Calm   5 mph 87 % 0 in
10:22 46.9 °F 43.3 °F 29.8 in Calm   5 mph 87 % 0 in
10:27 47.1 °F 43.5 °F 29.8 in SE 2 mph 2 mph 87 % 0 in
10:32 47.5 °F 43.5 °F 29.7 in Calm   2 mph 86 % 0 in
10:37 47.7 °F 43.7 °F 29.7 in Calm   2 mph 86 % 0 in
10:42 47.8 °F 43.5 °F 29.7 in Calm   2 mph 85 % 0 in
10:47 48 °F 43.7 °F 29.7 in Calm   2 mph 85 % 0 in
10:52 48.4 °F 44.1 °F 29.7 in Calm   2 mph 85 % 0 in
10:57 48.6 °F 44.2 °F 29.7 in Calm   2 mph 85 % 0 in
11:02 48.7 °F 44.4 °F 29.7 in Calm   2 mph 85 % 0 in
11:07 49.1 °F 44.8 °F 29.7 in Calm   1 mph 85 % 0 in
11:12 49.5 °F 44.8 °F 29.7 in ESE 2 mph 2 mph 84 % 0 in
11:17 49.8 °F 45.1 °F 29.7 in SSE 4 mph 4 mph 84 % 0 in
11:22 50.4 °F 45.3 °F 29.7 in SE 3 mph 7 mph 83 % 0 in
11:32 50.7 °F 45.5 °F 29.7 in SSE 2 mph 8 mph 82 % 0 in
11:42 51.4 °F 46.2 °F 29.7 in SSE 2 mph 8 mph 82 % 0 in
11:47 51.6 °F 46 °F 29.7 in South 1 mph 6 mph 81 % 0 in
11:52 52 °F 46.4 °F 29.7 in SSE 4 mph 6 mph 81 % 0 in
11:57 52.3 °F 46.8 °F 29.7 in SE 1 mph 8 mph 81 % 0 in
12:02 52.5 °F 46.9 °F 29.7 in SSE 3 mph 8 mph 81 % 0 in
12:07 52.5 °F 46.2 °F 29.7 in SE 4 mph 8 mph 79 % 0 in
12:12 52.9 °F 46.6 °F 29.7 in SE 2 mph 9 mph 79 % 0 in
12:17 52.9 °F 46.6 °F 29.7 in SSE 3 mph 9 mph 79 % 0 in
12:22 52.9 °F 47.3 °F 29.7 in ESE 2 mph 9 mph 81 % 0 in
12:27 53.1 °F 46.8 °F 29.7 in SSE 1 mph 9 mph 79 % 0 in
12:32 53.2 °F 47.3 °F 29.7 in ESE 6 mph 7 mph 80 % 0 in
12:37 53.2 °F 46.9 °F 29.7 in SE 4 mph 10 mph 79 % 0 in
12:42 53.6 °F 47.7 °F 29.7 in ESE 3 mph 10 mph 80 % 0 in
12:47 53.8 °F 47.5 °F 29.7 in SE 2 mph 10 mph 79 % 0 in
12:52 54.1 °F 47.8 °F 29.7 in SE 3 mph 7 mph 79 % 0 in
12:57 54.5 °F 48.2 °F 29.7 in SE 5 mph 7 mph 79 % 0 in
13:02 54.7 °F 47.7 °F 29.7 in SE 4 mph 7 mph 77 % 0 in
13:07 55 °F 48 °F 29.7 in SE 3 mph 7 mph 77 % 0 in
13:12 55.6 °F 48.6 °F 29.7 in SSW 6 mph 7 mph 77 % 0 in
13:17 56.5 °F 48.4 °F 29.7 in SSE 7 mph 7 mph 74 % 0 in
13:22 57 °F 49.1 °F 29.7 in SE 4 mph 14 mph 75 % 0 in
13:27 57.6 °F 48.6 °F 29.7 in South 7 mph 14 mph 72 % 0 in
13:32 58.3 °F 49.6 °F 29.7 in SSE 5 mph 14 mph 73 % 0 in
13:37 59.2 °F 49.5 °F 29.7 in SSW 7 mph 12 mph 70 % 0 in
13:42 59.4 °F 49.1 °F 29.7 in SE 10 mph 13 mph 69 % 0 in
13:47 59.4 °F 49.1 °F 29.7 in SSW 12 mph 14 mph 69 % 0 in
13:52 59.4 °F 49.6 °F 29.7 in South 5 mph 16 mph 70 % 0 in
13:57 59.4 °F 49.1 °F 29.7 in SE 4 mph 16 mph 69 % 0 in
14:02 59.5 °F 48.9 °F 29.7 in South 4 mph 16 mph 68 % 0 in
14:07 59.5 °F 49.3 °F 29.7 in SSE 6 mph 12 mph 69 % 0 in
14:12 59.7 °F 49.5 °F 29.7 in SSE 4 mph 12 mph 69 % 0 in
14:17 59.5 °F 48.9 °F 29.7 in SSE 4 mph 12 mph 68 % 0 in
14:22 59.4 °F 49.1 °F 29.7 in SSE 2 mph 11 mph 69 % 0 in
14:27 59.4 °F 50 °F 29.7 in South 4 mph 11 mph 71 % 0 in
14:32 59.2 °F 49.1 °F 29.7 in South 8 mph 11 mph 69 % 0 in
14:37 59 °F 48.9 °F 29.7 in South 5 mph 12 mph 69 % 0 in
14:42 59 °F 48.4 °F 29.7 in South 8 mph 12 mph 68 % 0 in
14:47 59 °F 49.6 °F 29.7 in SSW 8 mph 13 mph 71 % 0 in
14:52 58.8 °F 49.5 °F 29.7 in SSW 3 mph 13 mph 71 % 0 in
14:57 58.8 °F 49.5 °F 29.7 in SSW 4 mph 13 mph 71 % 0 in
15:02 58.8 °F 49.5 °F 29.7 in SSW 10 mph 12 mph 71 % 0 in
15:07 58.5 °F 48.4 °F 29.7 in SW 15 mph 17 mph 69 % 0 in
15:12 57.7 °F 48.7 °F 29.7 in SSW 9 mph 17 mph 72 % 0 in
15:17 57.2 °F 48.9 °F 29.7 in SSW 5 mph 17 mph 74 % 0 in
15:22 56.8 °F 48.6 °F 29.7 in SSW 3 mph 16 mph 74 % 0 in
15:27 56.8 °F 48.9 °F 29.7 in SSW 3 mph 14 mph 75 % 0 in
15:32 56.7 °F 49.5 °F 29.7 in SSW 2 mph 11 mph 77 % 0 in
15:37 56.5 °F 49.3 °F 29.7 in SSW 4 mph 8 mph 77 % 0 in
15:42 56.7 °F 49.1 °F 29.7 in SE 4 mph 8 mph 76 % 0 in
15:47 56.8 °F 49.6 °F 29.7 in SE 1 mph 5 mph 77 % 0 in
15:52 57 °F 49.8 °F 29.7 in SSE 3 mph 5 mph 77 % 0 in
15:57 57 °F 49.5 °F 29.7 in SSE 2 mph 6 mph 76 % 0 in
16:02 57 °F 49.5 °F 29.7 in SSW 2 mph 6 mph 76 % 0 in
16:07 57 °F 49.8 °F 29.7 in SSW 3 mph 6 mph 77 % 0 in
16:12 56.8 °F 49.6 °F 29.7 in SSE 3 mph 6 mph 77 % 0 in
16:17 56.8 °F 49.6 °F 29.7 in SSE 3 mph 7 mph 77 % 0 in
16:22 56.7 °F 49.5 °F 29.7 in SSW 3 mph 7 mph 77 % 0 in
16:27 56.5 °F 49.6 °F 29.7 in SSW 3 mph 7 mph 78 % 0 in
16:32 56.1 °F 49.3 °F 29.7 in South 4 mph 7 mph 78 % 0 in
16:42 55.8 °F 49.3 °F 29.7 in South 2 mph 5 mph 79 % 0 in
16:47 55.6 °F 49.1 °F 29.7 in SSW 4 mph 6 mph 79 % 0 in
16:52 55.8 °F 48.7 °F 29.7 in SSE 4 mph 8 mph 77 % 0 in
16:57 55.8 °F 48.7 °F 29.7 in SSW 5 mph 12 mph 77 % 0 in
17:02 55.6 °F 48.9 °F 29.7 in SE 5 mph 12 mph 78 % 0 in
17:07 55.4 °F 48.4 °F 29.7 in South 5 mph 12 mph 77 % 0 in
17:12 55.4 °F 48.4 °F 29.7 in SSE 6 mph 8 mph 77 % 0 in
17:17 55.2 °F 48.2 °F 29.7 in SSE 2 mph 9 mph 77 % 0 in
17:22 55 °F 48 °F 29.7 in SSE 2 mph 9 mph 77 % 0 in
17:27 55 °F 48 °F 29.7 in ESE 2 mph 8 mph 77 % 0 in
17:32 54.9 °F 48.2 °F 29.7 in SSE 2 mph 8 mph 78 % 0 in
17:37 54.7 °F 48 °F 29.7 in SE 4 mph 8 mph 78 % 0 in
17:42 54.7 °F 48 °F 29.7 in SE 2 mph 10 mph 78 % 0 in
17:47 54.7 °F 47.7 °F 29.7 in SE 2 mph 10 mph 77 % 0 in
17:52 54.7 °F 47.7 °F 29.7 in SSW 2 mph 10 mph 77 % 0 in
17:57 54.7 °F 48 °F 29.7 in SE 2 mph 9 mph 78 % 0 in
18:02 54.5 °F 47.8 °F 29.7 in South 2 mph 9 mph 78 % 0 in
18:07 54.3 °F 47.7 °F 29.7 in South 2 mph 9 mph 78 % 0 in
18:12 54.3 °F 47.7 °F 29.7 in ESE 2 mph 9 mph 78 % 0 in
18:17 54.1 °F 47.5 °F 29.7 in South 2 mph 7 mph 78 % 0 in
18:27 54.1 °F 47.8 °F 29.7 in South 4 mph 9 mph 79 % 0 in
18:32 54.1 °F 47.8 °F 29.7 in South 9 mph 9 mph 79 % 0 in
18:37 54.1 °F 47.8 °F 29.7 in SSW 8 mph 15 mph 79 % 0 in
18:42 54.1 °F 47.8 °F 29.7 in SSW 7 mph 16 mph 79 % 0 in
18:47 54.1 °F 47.8 °F 29.7 in SSW 8 mph 16 mph 79 % 0 in
18:52 54 °F 48 °F 29.7 in SSW 8 mph 16 mph 80 % 0 in
18:57 53.4 °F 48 °F 29.7 in SSW 8 mph 15 mph 82 % 0 in
19:02 53.1 °F 48 °F 29.7 in SW 6 mph 14 mph 83 % 0 in
19:12 52.9 °F 48.6 °F 29.7 in SW 9 mph 15 mph 85 % 0 in
19:17 53.1 °F 48.7 °F 29.7 in WSW 5 mph 15 mph 85 % 0 in
19:22 52.9 °F 48.7 °F 29.7 in SW 6 mph 13 mph 86 % 0.01 in
19:27 52.7 °F 48.9 °F 29.7 in SSW 5 mph 12 mph 87 % 0.01 in
19:32 52.5 °F 48.7 °F 29.7 in SW 2 mph 11 mph 87 % 0.01 in
19:37 52.3 °F 48.9 °F 29.7 in SW 2 mph 9 mph 88 % 0.01 in
19:42 52.3 °F 48.9 °F 29.7 in WSW 3 mph 9 mph 88 % 0.01 in
19:47 52.3 °F 48.9 °F 29.7 in SW 5 mph 6 mph 88 % 0.01 in
19:52 52.2 °F 48.7 °F 29.7 in SW 2 mph 6 mph 88 % 0.01 in
19:57 52 °F 48.9 °F 29.7 in Calm   6 mph 89 % 0.01 in
20:02 52 °F 48.9 °F 29.7 in Calm   6 mph 89 % 0.01 in
20:07 51.4 °F 48.4 °F 29.7 in Calm   3 mph 89 % 0.01 in
20:12 51.3 °F 48.4 °F 29.7 in SSE 1 mph 2 mph 90 % 0.01 in
20:17 51.1 °F 48.2 °F 29.7 in SSE 1 mph 2 mph 90 % 0.01 in
20:22 51.1 °F 48.6 °F 29.7 in Calm   2 mph 91 % 0 in
20:27 50.7 °F 48.2 °F 29.7 in SSW 1 mph 1 mph 91 % 0 in
20:32 50.5 °F 48.4 °F 29.7 in South 2 mph 2 mph 92 % 0 in
20:37 50.7 °F 48.2 °F 29.7 in SW 3 mph 6 mph 91 % 0.02 in
20:42 51.1 °F 48.6 °F 29.7 in SSW 8 mph 12 mph 91 % 0.02 in
20:47 51.3 °F 48.7 °F 29.7 in SW 12 mph 12 mph 91 % 0.03 in
20:52 51.4 °F 48.9 °F 29.7 in SW 4 mph 15 mph 91 % 0.03 in
20:57 51.3 °F 48.4 °F 29.7 in WSW 10 mph 15 mph 90 % 0.03 in
21:02 51.3 °F 48.4 °F 29.7 in SW 7 mph 15 mph 90 % 0.03 in
21:07 51.1 °F 48.2 °F 29.7 in SW 10 mph 13 mph 90 % 0.03 in
21:12 50.7 °F 47.8 °F 29.7 in SW 9 mph 11 mph 90 % 0.03 in
21:17 50.5 °F 48 °F 29.7 in SSW 8 mph 13 mph 91 % 0.03 in
21:22 50.4 °F 47.5 °F 29.7 in SW 18 mph 21 mph 90 % 0.03 in
21:32 49.8 °F 46.9 °F 29.7 in WSW 4 mph 21 mph 90 % 0.03 in
21:42 49.5 °F 46.9 °F 29.7 in WSW 10 mph 21 mph 91 % 0.01 in
21:47 49.3 °F 46.8 °F 29.7 in WSW 7 mph 17 mph 91 % 0 in
21:52 48.9 °F 46.8 °F 29.7 in SW 10 mph 17 mph 92 % 0.01 in
21:57 48.7 °F 46.6 °F 29.7 in WSW 8 mph 16 mph 92 % 0.01 in
22:02 48.6 °F 46.4 °F 29.7 in SSW 3 mph 14 mph 92 % 0.02 in
22:07 48.4 °F 46.4 °F 29.7 in SW 6 mph 14 mph 93 % 0.03 in
22:12 48 °F 46 °F 29.7 in WSW 10 mph 12 mph 93 % 0.04 in
22:17 48 °F 46 °F 29.7 in SW 5 mph 14 mph 93 % 0.04 in
22:22 47.8 °F 45.9 °F 29.7 in SW 8 mph 14 mph 93 % 0.04 in
22:27 47.8 °F 45.9 °F 29.7 in SW 9 mph 16 mph 93 % 0.04 in
22:32 47.8 °F 45.9 °F 29.7 in WSW 7 mph 16 mph 93 % 0.05 in
22:37 47.7 °F 45.7 °F 29.7 in SW 4 mph 16 mph 93 % 0.05 in
22:42 47.7 °F 46 °F 29.7 in SW 8 mph 13 mph 94 % 0.05 in
22:47 47.5 °F 45.9 °F 29.7 in SW 12 mph 13 mph 94 % 0.06 in
22:52 47.5 °F 45.5 °F 29.7 in WSW 10 mph 13 mph 93 % 0.05 in
22:57 47.3 °F 45.3 °F 29.7 in SW 7 mph 13 mph 93 % 0.04 in
23:02 47.1 °F 45.1 °F 29.7 in SW 5 mph 13 mph 93 % 0.03 in
23:07 47.1 °F 45.1 °F 29.7 in SW 8 mph 13 mph 93 % 0.02 in
23:12 46.9 °F 45.3 °F 29.7 in WSW 9 mph 13 mph 94 % 0.02 in
23:17 46.9 °F 45.3 °F 29.7 in SSW 7 mph 13 mph 94 % 0.02 in
23:22 46.8 °F 45.1 °F 29.7 in SW 8 mph 13 mph 94 % 0.02 in
23:27 46.8 °F 45.1 °F 29.7 in SSW 4 mph 12 mph 94 % 0.01 in
23:32 46.8 °F 45.1 °F 29.7 in SW 7 mph 12 mph 94 % 0.01 in
23:37 46.6 °F 45 °F 29.7 in SW 8 mph 13 mph 94 % 0.01 in
23:42 46.6 °F 45 °F 29.7 in South 6 mph 13 mph 94 % 0.01 in
23:47 46.6 °F 45 °F 29.7 in SSW 4 mph 12 mph 94 % 0.01 in
23:57 46.2 °F 44.6 °F 29.7 in SW 4 mph 9 mph 94 % 0.01 in
Meteo18
Compliments of Weather Underground - 4 mb

Script developed by  Jim McMurry - jmcmurry@mwt.net Adapted for the template by  Wim van der Kuil - Leuven-Template.eu

You find our weather info also at:

European Weather Network

Weather Underground

Equipment we use:

Weather-station
Davis Vue

Weather-program
Meteohub

Weather-server
Raspberry PI 2 B+

Provider
1 and 1

Davis Vue

Meteohub

Raspberry PI 2 B+

1 and 1